Northern Grand Banks: Past 24 Hour Conditions

 

Cartwright Airport

06:00 PM AST 20 November 2014
This table is a summary of hourly weather conditions for the past 24 hours.
Date / Time
(AST)
Wind(knots) Conditions Visibility(km) Pressure(kPa) Air tempC) Relative humidity(%) Dew pointC) Wind Chill
20 November 2014
18:00 WSW 12 gust 18 Clear 24 100.8 -5 72 -9 -12
17:00 WSW 11 gust 18 Clear 24 100.7 -5 68 -10 -11
16:00 WSW 13 gust 21 Clear 24 100.6 -5 69 -9 -12
15:00 WSW 13 gust 20 Sunny 24 100.5 -4 72 -8 -11
14:00 WSW 16 gust 22 Sunny 24 100.4 -4 64 -10 -11
13:00 WSW 20 gust 32 Sunny 24 100.3 -4 65 -10 -13
12:00 WSW 17 gust 25 Sunny 24 100.3 -4 69 -9 -12
11:00 WSW 17 gust 27 Mainly Sunny 24 100.2 -4 67 -10 -12
10:00 WSW 17 gust 25 Mainly Sunny 24 100.1 -4 70 -9 -12
9:00 WSW 17 gust 25 Sunny 24 100.0 -5 69 -9 -13
8:00 WSW 22 gust 32 Sunny 24 99.9 -5 70 -10 -14
7:00 WSW 22 gust 33 Clear 24 99.8 -5 72 -9 -14
6:00 WSW 24 gust 40 Clear 24 99.6 -5 61 -12 -15
5:00 WSW 18 gust 32 Clear 24 99.5 -5 79 -8 -14
4:00 WSW 18 gust 29 Clear 24 99.4 -5 65 -11 -14
3:00 WSW 21 gust 35 Clear 24 99.2 -5 71 -10 -14
2:00 WSW 24 gust 44 Clear 24 99.0 -5 68 -10 -14
1:00 WSW 19 gust 34 Clear 24 98.8 -4 67 -10 -13
0:00 WSW 17 gust 31 Mainly Clear 24 98.7 -4 65 -10 -12
19 November 2014
23:00 WSW 22 gust 42 Partly Cloudy 24 98.5 -4 66 -10 -13
22:00 W 22 gust 40 Mostly Cloudy 24 98.4 -4 66 -10 -13
21:00 WSW 25 gust 42 Mostly Cloudy 24 98.2 -4 61 -10 -13
20:00 WSW 20 gust 45 Partly Cloudy 24 98.0 -4 61 -10 -12
19:00 WSW 22 gust 41 Mainly Clear 24 97.9 -3 69 -8 -12
18:00 WSW 23 gust 36 Mainly Clear 24 97.7 -4 78 -7 -12
 
Map of Atlantic - Newfoundland marine weather areas Southwestern Grand Banks - 44138 Banquereau - 44139 Tail of the Bank - 44140 Nickerson Bank - 44251 Northeast Burgeo Bank - 44255 Blanc-Sablon Airport Cap Whittle Chevery Natashquan Airport Heath Point Miscou Island Grand Étang Ingonish Beach North Mountain St.Paul Island J.A. Douglas McCurdy Sydney Airport Charlottetown Airport East Point North Cape Argentia Bonavista Burgeo Cape Race Corner Brook Daniel's Harbour Englee Ferolle Point La Scie Port aux Basques Rocky Harbour Sagona Island St. Anthony Airport St. John's Int'l Airport St. Lawrence Stephenville Airport Twillingate Winterland Wreckhouse Cartwright Airport Mary's Harbour Grates Cove Pool's Island Marticot Island Long Pond Îles de la Madeleine Airport
Legend: buoyBuoy land stationLand Station